Time;durP1;ratioP1;P1;durP2;ratioP2;P2;SDS_P1;SDS_P2;PMS_P1;PMS_P2;Temp;Humidity;BMP_temperature;BMP_pressure;BME280_temperature;BME280_humidity;BME280_pressure;Samples;Min_cycle;Max_cycle;Signal;HPM_P1;HPM_P2
2022/10/10 00:01:12;;;;;;;9.20;6.78;;;7.70;99.90;;;;;;5044789;28;20051;-73
2022/10/10 00:03:38;;;;;;;8.75;5.45;;;7.60;99.90;;;;;;5029155;28;20151;-72
2022/10/10 00:06:05;;;;;;;8.25;5.90;;;7.70;99.90;;;;;;5047720;28;20036;-72
2022/10/10 00:08:30;;;;;;;9.23;6.32;;;7.60;99.90;;;;;;5058382;28;20040;-73
2022/10/10 00:10:56;;;;;;;8.35;6.30;;;7.60;99.90;;;;;;5063078;28;20043;-73
2022/10/10 00:13:22;;;;;;;8.60;6.40;;;7.60;99.90;;;;;;5040618;28;20127;-73
2022/10/10 00:15:48;;;;;;;6.47;5.75;;;7.60;99.90;;;;;;5027351;28;20395;-73
2022/10/10 00:18:13;;;;;;;8.73;6.97;;;7.60;99.90;;;;;;5047527;28;20060;-73
2022/10/10 00:20:39;;;;;;;9.93;7.43;;;7.50;99.90;;;;;;5046254;28;20043;-73
2022/10/10 00:23:05;;;;;;;8.15;5.80;;;7.50;99.90;;;;;;5034035;28;20823;-72
2022/10/10 00:25:31;;;;;;;7.93;5.68;;;7.50;99.90;;;;;;5059922;28;20399;-73
2022/10/10 00:28:00;;;;;;;8.73;6.57;;;7.50;99.90;;;;;;5046903;28;20036;-73
2022/10/10 00:30:26;;;;;;;10.18;6.63;;;7.40;99.90;;;;;;5059514;28;20093;-73
2022/10/10 00:32:51;;;;;;;8.75;7.03;;;7.40;99.90;;;;;;5028850;28;20040;-73
2022/10/10 00:35:17;;;;;;;8.32;6.18;;;7.40;99.90;;;;;;5042181;28;20198;-73
2022/10/10 00:37:43;;;;;;;7.93;5.90;;;7.40;99.90;;;;;;5062174;28;20051;-73
2022/10/10 00:40:10;;;;;;;9.05;6.88;;;7.30;99.90;;;;;;5043361;28;20049;-73
2022/10/10 00:42:36;;;;;;;6.93;6.15;;;7.40;99.90;;;;;;5064772;28;20123;-73
2022/10/10 00:45:26;;;;;;;10.13;7.03;;;7.40;99.90;;;;;;5032268;28;20119;-72
2022/10/10 00:47:57;;;;;;;9.07;7.70;;;7.30;99.90;;;;;;5056515;28;20107;-73
2022/10/10 00:50:23;;;;;;;7.65;6.75;;;7.30;99.90;;;;;;5060103;28;20682;-73
2022/10/10 00:52:50;;;;;;;11.77;7.15;;;7.30;99.90;;;;;;5058842;28;20078;-72
2022/10/10 00:55:16;;;;;;;8.77;7.30;;;7.30;99.90;;;;;;5063577;28;20060;-73
2022/10/10 00:57:42;;;;;;;10.10;7.30;;;7.30;99.90;;;;;;5040320;28;20047;-73
2022/10/10 01:00:09;;;;;;;9.23;7.20;;;7.30;99.90;;;;;;5043909;28;20503;-73
2022/10/10 01:02:35;;;;;;;9.70;7.35;;;7.30;99.90;;;;;;5045767;28;20208;-72
2022/10/10 01:05:00;;;;;;;8.07;6.68;;;7.20;99.90;;;;;;5041374;28;20182;-73
2022/10/10 01:07:30;;;;;;;8.57;7.07;;;7.20;99.90;;;;;;5048217;28;20048;-73
2022/10/10 01:10:05;;;;;;;8.95;7.85;;;7.20;99.90;;;;;;5062636;28;20037;-74
2022/10/10 01:12:45;;;;;;;9.00;7.13;;;7.20;99.90;;;;;;5063394;28;20048;-73
2022/10/10 01:15:20;;;;;;;9.85;7.22;;;7.20;99.90;;;;;;5059191;28;20128;-72
2022/10/10 01:17:50;;;;;;;7.75;7.03;;;7.20;99.90;;;;;;5047235;28;20044;-73
2022/10/10 01:20:18;;;;;;;9.60;6.73;;;7.20;99.90;;;;;;5042724;28;20036;-73
2022/10/10 01:23:06;;;;;;;9.63;7.22;;;7.30;99.90;;;;;;5062741;28;20497;-73
2022/10/10 01:25:54;;;;;;;9.18;7.60;;;7.30;99.90;;;;;;5045312;28;20040;-73
2022/10/10 01:28:39;;;;;;;10.13;7.22;;;7.40;99.90;;;;;;5032563;28;20155;-73
2022/10/10 01:31:09;;;;;;;7.90;6.53;;;7.50;99.90;;;;;;5076393;28;20048;-73
2022/10/10 01:33:54;;;;;;;12.10;7.07;;;7.50;99.90;;;;;;5060506;28;20040;-73
2022/10/10 01:36:28;;;;;;;10.32;7.43;;;7.50;99.90;;;;;;5056498;28;20704;-73
2022/10/10 01:39:01;;;;;;;8.98;7.00;;;7.50;99.90;;;;;;5032951;28;20068;-73
2022/10/10 01:41:33;;;;;;;9.98;7.03;;;7.60;99.90;;;;;;5061187;28;20055;-75
2022/10/10 01:44:01;;;;;;;9.73;7.20;;;7.60;99.90;;;;;;5060143;28;20068;-73
2022/10/10 01:46:27;;;;;;;8.70;7.72;;;7.60;99.90;;;;;;5041932;28;20103;-73
2022/10/10 01:48:56;;;;;;;9.93;7.75;;;7.70;99.90;;;;;;5043013;28;20520;-73
2022/10/10 01:51:52;;;;;;;9.05;7.43;;;7.60;99.90;;;;;;5062640;28;20048;-73
2022/10/10 01:54:37;;;;;;;9.75;7.43;;;7.70;99.90;;;;;;5059090;28;20809;-73
2022/10/10 01:57:03;;;;;;;10.55;7.30;;;7.70;99.90;;;;;;5040617;28;20691;-73
2022/10/10 01:59:48;;;;;;;10.27;7.85;;;7.70;99.90;;;;;;5043975;28;20052;-73
2022/10/10 02:02:39;;;;;;;7.97;7.18;;;7.70;99.90;;;;;;5042708;28;20060;-73
2022/10/10 02:05:36;;;;;;;8.52;7.20;;;7.70;99.90;;;;;;5046891;28;20032;-72
2022/10/10 02:08:16;;;;;;;7.95;7.15;;;7.70;99.90;;;;;;5033632;28;20044;-73
2022/10/10 02:11:05;;;;;;;9.57;7.88;;;7.70;99.90;;;;;;5055002;28;20044;-72
2022/10/10 02:14:00;;;;;;;9.30;7.28;;;7.70;99.90;;;;;;5039022;28;20041;-73
2022/10/10 02:16:34;;;;;;;9.57;7.80;;;7.70;99.90;;;;;;5054333;28;20106;-73
2022/10/10 02:19:04;;;;;;;11.15;8.32;;;7.80;99.90;;;;;;5027541;28;20270;-73
2022/10/10 02:21:31;;;;;;;9.30;6.97;;;7.70;99.90;;;;;;5055668;28;20184;-73
2022/10/10 02:24:02;;;;;;;9.95;7.78;;;7.70;99.90;;;;;;5043202;28;20064;-73
2022/10/10 02:26:30;;;;;;;8.75;7.78;;;7.80;99.90;;;;;;5043773;28;20056;-73
2022/10/10 02:29:10;;;;;;;9.55;8.10;;;7.70;99.90;;;;;;5057159;28;20056;-73
2022/10/10 02:31:45;;;;;;;9.18;8.20;;;7.70;99.90;;;;;;5051765;28;20045;-73
2022/10/10 02:34:19;;;;;;;7.90;7.10;;;7.70;99.90;;;;;;5056863;28;20044;-73
2022/10/10 02:36:55;;;;;;;9.75;7.45;;;7.70;99.90;;;;;;5039205;28;20510;-73
2022/10/10 02:39:26;;;;;;;9.20;7.95;;;7.70;99.90;;;;;;5057871;28;20080;-73
2022/10/10 02:41:52;;;;;;;10.18;7.90;;;7.70;99.90;;;;;;5060787;28;20080;-73
2022/10/10 02:44:18;;;;;;;8.57;7.70;;;7.70;99.90;;;;;;5057507;28;20156;-73
2022/10/10 02:46:44;;;;;;;10.18;8.25;;;7.70;99.90;;;;;;5044619;28;20040;-72
2022/10/10 02:49:10;;;;;;;8.32;7.38;;;7.60;99.90;;;;;;5059977;28;20052;-72
2022/10/10 02:51:38;;;;;;;10.50;8.98;;;7.60;99.90;;;;;;5060949;28;20039;-74
2022/10/10 02:54:05;;;;;;;10.63;8.27;;;7.60;99.90;;;;;;5058538;28;20052;-72
2022/10/10 02:56:31;;;;;;;9.45;8.38;;;7.60;99.90;;;;;;5041034;28;20133;-73
2022/10/10 02:58:56;;;;;;;9.57;8.60;;;7.60;99.90;;;;;;5055117;28;20123;-73
2022/10/10 03:01:23;;;;;;;11.85;8.13;;;7.60;99.90;;;;;;5063067;28;20441;-72
2022/10/10 03:03:48;;;;;;;11.13;8.75;;;7.60;99.90;;;;;;5037435;28;20051;-73
2022/10/10 03:06:14;;;;;;;11.18;9.68;;;7.60;99.90;;;;;;5024776;28;20057;-72
2022/10/10 03:08:40;;;;;;;10.27;9.27;;;7.70;99.90;;;;;;5054284;28;20431;-73
2022/10/10 03:11:07;;;;;;;10.07;8.15;;;7.70;99.90;;;;;;5044432;28;20530;-73
2022/10/10 03:13:32;;;;;;;9.48;8.57;;;7.70;99.90;;;;;;5058488;28;20044;-76
2022/10/10 03:15:58;;;;;;;9.02;7.97;;;7.70;99.90;;;;;;5009661;28;20039;-73
2022/10/10 03:18:24;;;;;;;10.32;8.88;;;7.60;99.90;;;;;;5051630;28;20075;-74
2022/10/10 03:20:53;;;;;;;14.45;9.40;;;7.70;99.90;;;;;;5058057;28;20494;-76
2022/10/10 03:23:19;;;;;;;8.73;7.82;;;7.70;99.90;;;;;;5061924;28;20313;-74
2022/10/10 03:25:45;;;;;;;11.40;8.85;;;7.70;99.90;;;;;;5044027;28;20040;-74
2022/10/10 03:28:12;;;;;;;10.02;8.20;;;7.70;99.90;;;;;;5044436;28;20503;-74
2022/10/10 03:30:38;;;;;;;9.25;8.10;;;7.70;99.90;;;;;;5055763;28;20119;-73
2022/10/10 03:33:05;;;;;;;10.63;9.50;;;7.70;99.90;;;;;;5039080;28;20055;-74
2022/10/10 03:35:31;;;;;;;11.90;10.10;;;7.60;99.90;;;;;;5037529;28;20571;-73
2022/10/10 03:38:00;;;;;;;11.82;9.43;;;7.60;99.90;;;;;;5057128;28;20119;-73
2022/10/10 03:40:30;;;;;;;11.68;9.65;;;7.60;99.90;;;;;;5016023;28;20067;-72
2022/10/10 03:42:56;;;;;;;11.57;9.65;;;7.60;99.90;;;;;;5045408;28;20049;-73
2022/10/10 03:45:22;;;;;;;10.98;9.68;;;7.50;99.90;;;;;;5044921;28;20074;-73
2022/10/10 03:47:48;;;;;;;10.63;9.52;;;7.50;99.90;;;;;;5065066;28;20048;-73
2022/10/10 03:50:14;;;;;;;11.18;9.30;;;7.50;99.90;;;;;;5014486;28;20049;-73
2022/10/10 03:52:40;;;;;;;11.68;9.93;;;7.50;99.90;;;;;;5043458;28;20098;-73
2022/10/10 03:55:06;;;;;;;9.65;8.75;;;7.50;99.90;;;;;;5032043;28;20052;-74
2022/10/10 03:57:32;;;;;;;10.32;9.23;;;7.50;99.90;;;;;;5063023;28;20064;-73
2022/10/10 04:00:04;;;;;;;14.45;10.13;;;7.50;99.90;;;;;;5062441;28;20529;-73
2022/10/10 04:02:30;;;;;;;10.30;9.27;;;7.50;99.90;;;;;;5015839;28;20514;-73
2022/10/10 04:04:56;;;;;;;11.63;10.05;;;7.40;99.90;;;;;;5057656;28;20044;-74
2022/10/10 04:07:22;;;;;;;10.80;9.38;;;7.50;99.90;;;;;;5045207;28;20052;-73
2022/10/10 04:09:47;;;;;;;13.30;10.50;;;7.50;99.90;;;;;;5027808;28;20384;-73
2022/10/10 04:12:13;;;;;;;12.27;9.38;;;7.50;99.90;;;;;;5043656;28;20055;-73
2022/10/10 04:14:39;;;;;;;12.02;9.95;;;7.40;99.90;;;;;;5060775;28;20118;-74
2022/10/10 04:17:05;;;;;;;12.27;11.00;;;7.40;99.90;;;;;;5062941;28;20083;-73
2022/10/10 04:19:31;;;;;;;13.60;10.32;;;7.50;99.90;;;;;;5031457;28;20052;-74
2022/10/10 04:21:57;;;;;;;12.13;10.82;;;7.50;99.90;;;;;;5048623;28;20442;-74
2022/10/10 04:24:23;;;;;;;11.38;10.15;;;7.40;99.90;;;;;;5061885;28;20063;-74
2022/10/10 04:26:48;;;;;;;11.45;9.55;;;7.40;99.90;;;;;;5065511;28;20052;-74
2022/10/10 04:29:14;;;;;;;14.35;11.20;;;7.50;99.90;;;;;;5048031;28;20053;-73
2022/10/10 04:31:40;;;;;;;11.57;10.30;;;7.50;99.90;;;;;;5043387;28;20036;-74
2022/10/10 04:34:06;;;;;;;11.77;10.57;;;7.40;99.90;;;;;;5062183;28;20052;-73
2022/10/10 04:36:31;;;;;;;13.53;11.60;;;7.50;99.90;;;;;;5043773;28;20556;-74
2022/10/10 04:38:58;;;;;;;13.75;10.55;;;7.50;99.90;;;;;;5046410;28;20230;-72
2022/10/10 04:41:25;;;;;;;12.15;9.93;;;7.40;99.90;;;;;;5030193;28;20044;-73
2022/10/10 04:43:51;;;;;;;12.13;10.68;;;7.40;99.90;;;;;;5045670;28;20124;-73
2022/10/10 04:46:16;;;;;;;13.00;10.23;;;7.40;99.90;;;;;;5045690;28;20123;-74
2022/10/10 04:48:42;;;;;;;12.57;11.38;;;7.40;99.90;;;;;;5042102;28;20116;-73
2022/10/10 04:51:09;;;;;;;11.43;9.93;;;7.40;99.90;;;;;;5045771;28;20071;-73
2022/10/10 04:53:35;;;;;;;12.57;10.52;;;7.40;99.90;;;;;;5059902;28;20449;-73
2022/10/10 04:56:00;;;;;;;12.25;10.85;;;7.40;99.90;;;;;;5042439;28;20032;-73
2022/10/10 04:58:26;;;;;;;12.23;11.02;;;7.40;99.90;;;;;;5062027;28;20095;-73
2022/10/10 05:00:53;;;;;;;14.00;11.32;;;7.30;99.90;;;;;;5034817;28;20092;-73
2022/10/10 05:03:20;;;;;;;13.27;10.95;;;7.40;99.90;;;;;;5056073;28;20083;-73
2022/10/10 05:05:46;;;;;;;13.93;10.68;;;7.30;99.90;;;;;;5057209;28;20124;-72
2022/10/10 05:08:12;;;;;;;12.93;11.60;;;7.40;99.90;;;;;;5060463;28;20194;-72
2022/10/10 05:10:38;;;;;;;13.18;10.88;;;7.40;99.90;;;;;;5042833;28;20055;-74
2022/10/10 05:13:05;;;;;;;14.63;10.40;;;7.30;99.90;;;;;;5040381;28;20127;-75
2022/10/10 05:15:34;;;;;;;14.25;11.95;;;7.30;99.90;;;;;;5057237;28;20106;-75
2022/10/10 05:18:00;;;;;;;13.95;12.45;;;7.40;99.90;;;;;;5036838;28;20040;-73
2022/10/10 05:20:26;;;;;;;13.63;11.52;;;7.30;99.90;;;;;;5035991;28;20451;-74
2022/10/10 05:22:52;;;;;;;12.18;10.98;;;7.40;99.90;;;;;;5058307;28;20084;-73
2022/10/10 05:25:21;;;;;;;13.15;11.68;;;7.40;99.90;;;;;;5061213;28;20136;-75
2022/10/10 05:27:47;;;;;;;12.45;11.25;;;7.40;99.90;;;;;;5061247;28;20366;-74
2022/10/10 05:30:13;;;;;;;13.30;11.95;;;7.50;99.90;;;;;;5074176;28;20071;-74
2022/10/10 05:32:39;;;;;;;11.68;10.50;;;7.40;99.90;;;;;;5040802;28;20049;-73
2022/10/10 05:35:06;;;;;;;13.70;12.13;;;7.40;99.90;;;;;;5027389;28;20040;-73
2022/10/10 05:37:32;;;;;;;14.32;12.25;;;7.40;99.90;;;;;;5041692;28;20119;-73
2022/10/10 05:40:01;;;;;;;14.52;12.23;;;7.40;99.90;;;;;;5028900;28;20048;-74
2022/10/10 05:42:26;;;;;;;12.00;10.80;;;7.40;99.90;;;;;;5059942;28;20518;-75
2022/10/10 05:44:52;;;;;;;14.48;11.35;;;7.40;99.90;;;;;;5055744;28;20040;-73
2022/10/10 05:47:18;;;;;;;13.23;11.90;;;7.40;99.90;;;;;;5042217;28;20338;-76
2022/10/10 05:49:44;;;;;;;13.63;11.77;;;7.40;99.90;;;;;;5044339;28;20045;-75
2022/10/10 05:52:10;;;;;;;13.55;12.13;;;7.40;99.90;;;;;;5054666;28;20520;-75
2022/10/10 05:54:36;;;;;;;17.48;13.00;;;7.40;99.90;;;;;;5058017;28;20052;-75
2022/10/10 05:57:02;;;;;;;13.00;10.88;;;7.40;99.90;;;;;;5044925;28;20703;-75
2022/10/10 05:59:28;;;;;;;13.15;11.55;;;7.30;99.90;;;;;;5039323;28;20084;-75
2022/10/10 06:01:54;;;;;;;15.48;12.80;;;7.50;99.90;;;;;;5055424;28;20040;-76
2022/10/10 06:04:21;;;;;;;13.30;11.98;;;7.50;99.90;;;;;;5059375;28;20109;-75
2022/10/10 06:06:47;;;;;;;13.30;11.82;;;7.50;99.90;;;;;;5035336;28;20052;-75
2022/10/10 06:09:12;;;;;;;13.55;10.98;;;7.50;99.90;;;;;;5054593;28;20029;-77
2022/10/10 06:11:38;;;;;;;14.23;11.35;;;7.40;99.90;;;;;;5043146;28;20833;-77
2022/10/10 06:14:04;;;;;;;15.60;12.93;;;7.40;99.90;;;;;;5028062;28;20049;-77
2022/10/10 06:16:30;;;;;;;13.23;11.43;;;7.40;99.90;;;;;;5027934;28;20403;-77
2022/10/10 06:18:56;;;;;;;12.90;11.60;;;7.50;99.90;;;;;;5059807;28;20028;-77
2022/10/10 06:21:22;;;;;;;12.50;11.15;;;7.50;99.90;;;;;;5057436;28;20040;-76
2022/10/10 06:23:47;;;;;;;13.20;11.18;;;7.50;99.90;;;;;;5047015;28;20436;-76
2022/10/10 06:26:14;;;;;;;15.18;11.68;;;7.50;99.90;;;;;;5026741;28;20140;-76
2022/10/10 06:28:40;;;;;;;12.85;11.68;;;7.60;99.90;;;;;;5044557;28;20445;-76
2022/10/10 06:31:07;;;;;;;15.80;12.38;;;7.60;99.90;;;;;;5037087;28;20687;-77
2022/10/10 06:33:36;;;;;;;13.80;12.30;;;7.60;99.90;;;;;;5057667;28;20060;-77
2022/10/10 06:36:05;;;;;;;14.10;11.23;;;7.60;99.90;;;;;;5055173;28;20048;-76
2022/10/10 06:38:30;;;;;;;13.73;11.35;;;7.60;99.90;;;;;;5059560;28;20040;-77
2022/10/10 06:41:04;;;;;;;14.23;12.50;;;7.60;99.90;;;;;;5043672;28;20048;-77
2022/10/10 06:43:31;;;;;;;12.88;11.55;;;7.60;99.90;;;;;;5057978;28;20076;-77
2022/10/10 06:45:57;;;;;;;15.43;12.23;;;7.60;99.90;;;;;;5037295;28;20136;-76
2022/10/10 06:48:23;;;;;;;14.02;11.80;;;7.70;99.90;;;;;;5055909;28;20048;-77
2022/10/10 06:51:00;;;;;;;13.23;11.35;;;7.70;99.90;;;;;;5059987;28;20421;-77
2022/10/10 06:53:26;;;;;;;15.85;12.15;;;7.80;99.90;;;;;;5044332;28;20055;-76
2022/10/10 06:55:56;;;;;;;13.40;12.02;;;7.80;99.90;;;;;;5060066;28;20511;-76
2022/10/10 06:58:23;;;;;;;15.38;12.30;;;7.90;99.90;;;;;;5071412;28;20065;-76
2022/10/10 07:01:00;;;;;;;14.60;12.73;;;7.90;99.90;;;;;;5058287;28;20187;-76
2022/10/10 07:03:31;;;;;;;13.25;11.85;;;8.00;99.90;;;;;;5042979;28;20490;-76
2022/10/10 07:05:59;;;;;;;12.43;11.23;;;8.10;99.90;;;;;;5039609;28;20071;-77
2022/10/10 07:08:34;;;;;;;13.38;11.80;;;8.20;99.90;;;;;;5041502;28;20672;-77
2022/10/10 07:11:01;;;;;;;13.07;11.38;;;8.30;99.90;;;;;;5059118;28;20037;-78
2022/10/10 07:13:27;;;;;;;14.80;11.27;;;8.40;99.90;;;;;;5027792;28;20052;-77
2022/10/10 07:15:53;;;;;;;14.55;11.60;;;8.50;99.90;;;;;;5066070;28;20540;-77
2022/10/10 07:18:19;;;;;;;13.57;12.15;;;8.50;99.90;;;;;;5063164;28;20036;-76
2022/10/10 07:20:45;;;;;;;15.00;12.02;;;8.50;99.90;;;;;;5064383;28;20052;-77
2022/10/10 07:23:11;;;;;;;13.65;11.80;;;8.60;99.90;;;;;;5058838;28;20037;-76
2022/10/10 07:25:38;;;;;;;13.35;11.95;;;8.60;99.90;;;;;;5066204;28;20063;-76
2022/10/10 07:28:08;;;;;;;12.55;11.35;;;8.70;99.90;;;;;;5059655;28;20076;-77
2022/10/10 07:30:39;;;;;;;12.80;11.43;;;8.70;99.90;;;;;;5058616;28;20049;-77
2022/10/10 07:33:06;;;;;;;13.73;12.02;;;8.80;99.90;;;;;;5057039;28;20651;-76
2022/10/10 07:35:31;;;;;;;13.45;12.10;;;8.80;99.90;;;;;;5045887;28;20042;-76
2022/10/10 07:37:57;;;;;;;14.27;12.77;;;8.90;99.90;;;;;;5058572;28;20037;-76
2022/10/10 07:40:23;;;;;;;15.68;12.80;;;8.90;99.90;;;;;;5047790;28;20491;-77
2022/10/10 07:42:49;;;;;;;16.05;12.07;;;9.00;99.90;;;;;;5059339;28;20052;-76
2022/10/10 07:45:15;;;;;;;13.80;11.70;;;9.00;99.90;;;;;;5025677;28;20491;-77
2022/10/10 07:47:41;;;;;;;13.57;11.00;;;9.10;99.90;;;;;;5058529;28;20056;-76
2022/10/10 07:50:09;;;;;;;15.40;12.27;;;9.20;99.90;;;;;;5027862;28;20032;-76
2022/10/10 07:52:35;;;;;;;13.20;11.65;;;9.30;99.90;;;;;;5065329;28;20068;-76
2022/10/10 07:55:01;;;;;;;18.58;12.48;;;9.40;99.90;;;;;;5048088;28;20144;-78
2022/10/10 07:57:27;;;;;;;14.13;10.90;;;9.60;99.90;;;;;;5058775;28;20113;-76
2022/10/10 07:59:53;;;;;;;15.63;11.38;;;9.70;99.90;;;;;;5061425;28;20041;-77
2022/10/10 08:02:18;;;;;;;14.07;11.15;;;9.90;99.90;;;;;;5062001;28;20102;-77
2022/10/10 08:04:44;;;;;;;13.13;10.73;;;10.10;99.90;;;;;;5026627;28;20063;-76
2022/10/10 08:07:10;;;;;;;12.68;11.13;;;10.10;99.90;;;;;;5043144;28;20095;-76
2022/10/10 08:09:36;;;;;;;11.52;10.20;;;10.10;99.90;;;;;;5059104;28;20122;-77
2022/10/10 08:12:01;;;;;;;12.25;10.15;;;10.20;99.90;;;;;;5060904;28;20067;-77
2022/10/10 08:14:27;;;;;;;12.07;10.30;;;10.20;99.90;;;;;;5044945;28;20124;-72
2022/10/10 08:16:53;;;;;;;14.90;10.88;;;10.40;99.90;;;;;;5028426;28;20057;-72
2022/10/10 08:19:19;;;;;;;12.13;10.80;;;10.60;99.90;;;;;;5047630;28;20040;-72
2022/10/10 08:21:45;;;;;;;11.65;10.45;;;10.70;99.90;;;;;;5058630;28;20125;-72
2022/10/10 08:24:10;;;;;;;12.10;10.48;;;10.80;99.90;;;;;;5060304;28;20739;-71
2022/10/10 08:26:36;;;;;;;12.43;11.13;;;11.00;99.90;;;;;;5048445;28;20051;-72
2022/10/10 08:29:02;;;;;;;12.95;10.48;;;11.10;99.90;;;;;;5045596;28;20036;-72
2022/10/10 08:31:29;;;;;;;11.93;10.65;;;11.20;99.90;;;;;;5044736;28;20505;-72
2022/10/10 08:33:55;;;;;;;12.57;10.52;;;11.30;99.90;;;;;;5063120;28;20170;-72
2022/10/10 08:36:23;;;;;;;11.77;9.98;;;11.40;99.90;;;;;;5040130;28;20032;-72
2022/10/10 08:38:51;;;;;;;11.82;10.10;;;11.50;99.90;;;;;;5060731;28;20700;-72
2022/10/10 08:41:35;;;;;;;14.70;11.15;;;11.60;99.90;;;;;;5061094;28;20041;-72
2022/10/10 08:44:09;;;;;;;12.80;10.30;;;11.80;99.90;;;;;;5062189;28;20041;-77
2022/10/10 08:46:38;;;;;;;13.30;9.55;;;11.90;99.90;;;;;;5057450;28;20303;-78
2022/10/10 08:49:36;;;;;;;12.68;10.02;;;12.10;99.90;;;;;;5062850;28;20072;-77
2022/10/10 08:52:34;;;;;;;11.75;10.35;;;12.20;99.90;;;;;;5062225;28;20166;-77
2022/10/10 08:55:02;;;;;;;11.95;10.40;;;12.40;99.90;;;;;;5060825;28;20053;-78
2022/10/10 08:57:39;;;;;;;12.32;9.40;;;12.50;99.90;;;;;;5060485;28;20058;-77
2022/10/10 09:00:07;;;;;;;11.27;10.07;;;12.50;99.90;;;;;;5059388;28;20449;-78
2022/10/10 09:02:40;;;;;;;11.60;9.70;;;12.60;99.90;;;;;;5058193;28;20488;-78
2022/10/10 09:05:14;;;;;;;12.57;10.38;;;12.60;99.90;;;;;;5062387;28;20371;-77
2022/10/10 09:08:00;;;;;;;13.68;9.05;;;12.60;99.90;;;;;;5075185;28;20041;-77
2022/10/10 09:11:04;;;;;;;10.77;9.18;;;12.60;99.90;;;;;;5057675;28;20040;-78
2022/10/10 09:13:38;;;;;;;12.70;10.35;;;12.60;99.90;;;;;;5057409;28;20075;-77
2022/10/10 09:16:27;;;;;;;11.02;9.90;;;12.70;99.90;;;;;;5058909;28;20053;-78
2022/10/10 09:19:00;;;;;;;11.60;10.40;;;12.80;99.90;;;;;;5060749;28;20037;-78
2022/10/10 09:21:32;;;;;;;12.23;10.65;;;12.80;99.90;;;;;;5044273;28;20052;-76
2022/10/10 09:24:18;;;;;;;13.70;10.35;;;12.90;99.90;;;;;;5076496;28;20437;-77
2022/10/10 09:26:55;;;;;;;12.55;10.50;;;13.00;99.90;;;;;;5059682;28;20048;-77
2022/10/10 09:29:53;;;;;;;13.68;9.40;;;13.10;99.90;;;;;;5075434;28;20044;-78
2022/10/10 09:32:24;;;;;;;12.52;9.50;;;13.20;99.90;;;;;;5071283;28;20867;-78
2022/10/10 09:35:14;;;;;;;14.70;9.63;;;13.30;99.90;;;;;;5060504;28;20048;-78
2022/10/10 09:37:42;;;;;;;12.60;9.80;;;13.40;99.90;;;;;;5027581;28;20052;-77
2022/10/10 09:40:27;;;;;;;11.45;8.85;;;13.50;99.90;;;;;;5042651;28;20507;-77
2022/10/10 09:42:54;;;;;;;10.27;8.68;;;13.70;99.90;;;;;;5057695;28;20056;-78
2022/10/10 09:45:25;;;;;;;11.15;9.30;;;13.80;99.90;;;;;;5059170;28;20048;-78
2022/10/10 09:47:54;;;;;;;12.48;9.43;;;13.80;99.90;;;;;;5038982;28;20049;-78
2022/10/10 09:50:21;;;;;;;12.93;9.45;;;13.90;99.90;;;;;;5057906;28;20048;-72
2022/10/10 09:52:48;;;;;;;11.88;8.80;;;13.90;99.90;;;;;;5044088;28;20487;-78
2022/10/10 09:55:27;;;;;;;14.25;9.98;;;14.00;99.90;;;;;;5045112;28;20563;-78
2022/10/10 09:57:59;;;;;;;12.55;9.45;;;14.00;99.90;;;;;;5044596;28;20092;-78
2022/10/10 10:00:32;;;;;;;10.90;8.77;;;14.00;99.90;;;;;;5064090;28;20060;-77
2022/10/10 10:03:15;;;;;;;11.80;8.93;;;14.00;99.90;;;;;;5038086;28;20060;-78
2022/10/10 10:05:53;;;;;;;10.95;8.70;;;14.00;99.90;;;;;;5059272;28;20054;-77
2022/10/10 10:08:30;;;;;;;14.05;9.38;;;14.00;99.90;;;;;;5056525;28;20324;-77
2022/10/10 10:10:56;;;;;;;10.15;8.68;;;14.00;99.90;;;;;;5059262;28;20379;-78
2022/10/10 10:13:42;;;;;;;12.00;9.10;;;14.00;99.90;;;;;;5060074;28;20102;-79
2022/10/10 10:16:11;;;;;;;11.38;8.90;;;14.00;99.90;;;;;;5045484;28;20104;-78
2022/10/10 10:18:45;;;;;;;10.35;9.25;;;14.00;99.90;;;;;;5062015;28;20040;-78
2022/10/10 10:21:11;;;;;;;10.88;9.40;;;14.10;99.90;;;;;;5055890;28;20075;-78
2022/10/10 10:23:43;;;;;;;11.57;9.07;;;14.10;99.90;;;;;;5058464;28;20429;-77
2022/10/10 10:26:31;;;;;;;12.07;9.35;;;14.20;99.90;;;;;;5057593;28;20045;-78
2022/10/10 10:28:57;;;;;;;11.80;9.32;;;14.20;99.90;;;;;;5060358;28;20048;-79
2022/10/10 10:31:53;;;;;;;9.88;8.63;;;14.40;99.90;;;;;;5035310;28;20037;-78
2022/10/10 10:35:01;;;;;;;12.20;9.77;;;14.40;99.90;;;;;;5058982;28;20048;-78
2022/10/10 10:37:46;;;;;;;11.27;9.50;;;14.50;99.90;;;;;;5034977;28;20044;-78
2022/10/10 10:40:28;;;;;;;11.70;9.35;;;14.60;99.90;;;;;;5044472;28;20517;-78
2022/10/10 10:43:23;;;;;;;11.27;9.10;;;14.70;99.90;;;;;;5059100;28;20132;-78
2022/10/10 10:46:18;;;;;;;12.88;8.77;;;14.80;99.90;;;;;;5059114;28;20063;-78
2022/10/10 10:49:00;;;;;;;10.43;8.27;;;15.00;99.90;;;;;;5060941;28;20048;-79
2022/10/10 10:52:04;;;;;;;10.73;8.63;;;15.20;99.90;;;;;;5048686;28;20033;-78
2022/10/10 10:54:51;;;;;;;11.35;8.50;;;15.30;99.90;;;;;;5051873;28;20527;-79
2022/10/10 10:57:31;;;;;;;11.45;8.75;;;15.30;99.90;;;;;;5063501;28;20056;-79
2022/10/10 11:00:01;;;;;;;;;;;15.30;99.90;;;;;;5048406;28;20846;-79
2022/10/10 11:02:44;;;;;;;10.20;7.60;;;15.30;99.90;;;;;;5063547;28;19928;-79
2022/10/10 11:05:19;;;;;;;11.25;7.93;;;15.40;99.90;;;;;;5049289;28;20044;-78
2022/10/10 11:08:15;;;;;;;13.52;8.30;;;15.30;99.90;;;;;;5046524;28;20487;-78
2022/10/10 11:11:00;;;;;;;10.80;8.75;;;15.30;99.90;;;;;;5043848;28;20037;-78
2022/10/10 11:13:30;;;;;;;12.07;8.73;;;15.30;99.90;;;;;;5063521;28;20064;-79
2022/10/10 11:16:04;;;;;;;9.07;7.13;;;15.20;99.90;;;;;;5065580;28;20037;-78
2022/10/10 11:18:40;;;;;;;11.02;7.30;;;15.20;99.90;;;;;;5063898;28;20507;-78
2022/10/10 11:21:24;;;;;;;10.27;7.82;;;15.20;99.90;;;;;;5047424;28;20046;-79
2022/10/10 11:23:56;;;;;;;12.45;7.88;;;15.10;99.90;;;;;;5046408;28;20449;-79
2022/10/10 11:26:45;;;;;;;10.20;7.60;;;15.00;99.90;;;;;;5062547;28;20108;-78
2022/10/10 11:29:21;;;;;;;11.55;9.20;;;15.00;99.90;;;;;;5055357;28;20110;-78
2022/10/10 11:31:54;;;;;;;13.30;9.30;;;14.90;99.90;;;;;;5043310;28;20048;-78
2022/10/10 11:34:49;;;;;;;11.65;9.07;;;14.80;99.90;;;;;;5060444;28;20045;-79
2022/10/10 11:37:26;;;;;;;13.15;8.90;;;14.80;99.90;;;;;;5060839;28;20593;-78
2022/10/10 11:39:55;;;;;;;12.90;9.15;;;14.70;99.90;;;;;;5045072;28;20385;-78
2022/10/10 11:42:52;;;;;;;15.05;9.93;;;14.60;99.90;;;;;;5046855;28;20053;-78
2022/10/10 11:45:28;;;;;;;11.25;9.23;;;14.50;99.90;;;;;;5059477;28;20057;-78
2022/10/10 11:48:05;;;;;;;14.70;9.93;;;14.40;99.90;;;;;;5063308;28;20055;-78
2022/10/10 11:50:37;;;;;;;14.82;10.10;;;14.40;99.90;;;;;;5045643;28;20052;-78
2022/10/10 11:53:49;;;;;;;11.45;9.88;;;14.30;99.90;;;;;;5045970;28;20053;-78
2022/10/10 11:56:34;;;;;;;13.52;10.40;;;14.30;99.90;;;;;;5050806;28;20142;-77
2022/10/10 11:59:14;;;;;;;12.90;9.25;;;14.20;99.90;;;;;;5063368;28;20045;-78
2022/10/10 12:01:51;;;;;;;13.80;9.93;;;14.20;99.90;;;;;;5058412;28;20513;-78
2022/10/10 12:04:17;;;;;;;12.40;10.52;;;14.20;99.90;;;;;;5046544;28;20131;-78
2022/10/10 12:06:49;;;;;;;11.50;9.90;;;14.20;99.90;;;;;;5063136;28;20245;-78
2022/10/10 12:09:27;;;;;;;14.05;10.68;;;14.20;99.90;;;;;;5044340;28;20541;-78
2022/10/10 12:11:56;;;;;;;14.35;10.35;;;14.20;99.90;;;;;;5060362;28;20056;-78
2022/10/10 12:14:25;;;;;;;18.35;10.18;;;14.30;99.90;;;;;;5061804;28;20487;-78
2022/10/10 12:16:51;;;;;;;12.68;10.20;;;14.30;99.90;;;;;;5061912;28;20044;-73
2022/10/10 12:19:21;;;;;;;13.40;10.00;;;14.30;99.90;;;;;;5060453;28;20529;-73
2022/10/10 12:22:00;;;;;;;14.98;10.60;;;14.20;99.90;;;;;;5044774;28;20041;-73
2022/10/10 12:24:29;;;;;;;15.85;10.25;;;14.30;99.90;;;;;;5046451;28;20079;-73
2022/10/10 12:26:55;;;;;;;14.03;10.33;;;14.30;99.90;;;;;;5045678;28;20560;-73
2022/10/10 12:29:45;;;;;;;15.13;11.07;;;14.30;99.90;;;;;;5063383;28;20044;-73
2022/10/10 12:32:14;;;;;;;;;;;14.30;99.90;;;;;;5061054;28;20036;-73
2022/10/10 12:34:57;;;;;;;13.50;10.77;;;14.20;99.90;;;;;;5062746;28;19931;-78
2022/10/10 12:37:32;;;;;;;17.95;12.40;;;14.20;99.90;;;;;;5058873;28;20078;-78
2022/10/10 12:40:04;;;;;;;13.23;11.88;;;14.20;99.90;;;;;;5062095;28;20115;-77
2022/10/10 12:43:01;;;;;;;16.38;13.60;;;14.10;99.90;;;;;;5062977;28;20044;-78
2022/10/10 12:45:32;;;;;;;16.10;14.00;;;14.00;99.90;;;;;;5074918;28;20041;-79
2022/10/10 12:48:00;;;;;;;17.27;13.85;;;14.00;99.90;;;;;;5047859;28;20033;-78
2022/10/10 12:50:31;;;;;;;17.17;14.70;;;13.90;99.90;;;;;;5059164;28;20601;-78
2022/10/10 12:53:03;;;;;;;17.90;14.80;;;13.90;99.90;;;;;;5076352;28;20667;-79
2022/10/10 12:55:33;;;;;;;17.33;13.63;;;13.90;99.90;;;;;;5064409;28;21347;-78
2022/10/10 12:58:02;;;;;;;16.80;15.13;;;13.80;99.90;;;;;;5056903;28;20063;-79
2022/10/10 13:00:56;;;;;;;18.45;14.82;;;13.80;99.90;;;;;;5056319;28;20072;-79
2022/10/10 13:03:43;;;;;;;17.23;15.38;;;13.70;99.90;;;;;;5059895;28;20062;-78